Time;durP1;ratioP1;P1;durP2;ratioP2;P2;SDS_P1;SDS_P2;PMS_P1;PMS_P2;Temp;Humidity;BMP_temperature;BMP_pressure;BME280_temperature;BME280_humidity;BME280_pressure;Samples;Min_cycle;Max_cycle;Signal;HPM_P1;HPM_P2
2020/12/23 00:00:58;;;;;;;101.63;42.85;;;8.80;99.90;;;;;;4160026;28;20040;-78
2020/12/23 00:02:58;;;;;;;112.00;45.70;;;8.80;99.90;;;;;;4178022;28;20435;-78
2020/12/23 00:04:59;;;;;;;117.22;43.83;;;8.80;99.90;;;;;;4178125;28;20120;-78
2020/12/23 00:07:00;;;;;;;105.78;43.13;;;8.80;99.90;;;;;;4178573;28;20113;-78
2020/12/23 00:09:05;;;;;;;105.30;44.03;;;8.80;99.90;;;;;;4178947;28;20532;-77
2020/12/23 00:11:06;;;;;;;101.47;42.40;;;8.80;99.90;;;;;;4179288;28;20017;-78
2020/12/23 00:13:06;;;;;;;98.47;44.80;;;8.80;99.90;;;;;;4168815;28;20108;-78
2020/12/23 00:15:07;;;;;;;102.95;42.30;;;8.80;99.90;;;;;;4179465;28;20022;-77
2020/12/23 00:17:08;;;;;;;107.70;44.20;;;8.80;99.90;;;;;;4179268;28;20021;-78
2020/12/23 00:19:09;;;;;;;96.38;39.63;;;8.90;99.90;;;;;;4179195;28;20480;-77
2020/12/23 00:21:09;;;;;;;101.93;41.22;;;8.90;99.90;;;;;;4161141;28;20033;-77
2020/12/23 00:23:10;;;;;;;99.63;41.70;;;8.90;99.90;;;;;;4161346;28;20038;-77
2020/12/23 00:25:11;;;;;;;103.47;41.42;;;8.90;99.90;;;;;;4179090;28;20102;-77
2020/12/23 00:27:11;;;;;;;102.95;41.83;;;8.90;99.90;;;;;;4179240;28;20067;-77
2020/12/23 00:29:14;;;;;;;105.88;43.03;;;8.90;99.90;;;;;;4179168;28;20033;-78
2020/12/23 00:31:16;;;;;;;113.07;41.35;;;8.90;99.90;;;;;;4178802;28;20476;-77
2020/12/23 00:33:17;;;;;;;109.30;43.50;;;8.90;99.90;;;;;;4179041;28;20380;-78
2020/12/23 00:35:17;;;;;;;110.22;41.90;;;8.90;99.90;;;;;;4178088;28;20017;-78
2020/12/23 00:37:18;;;;;;;116.60;44.50;;;8.90;99.90;;;;;;4179089;28;20108;-78
2020/12/23 00:39:19;;;;;;;124.53;45.28;;;8.90;99.90;;;;;;4179059;28;20059;-78
2020/12/23 00:41:19;;;;;;;126.47;45.85;;;8.90;99.90;;;;;;4161243;28;20091;-77
2020/12/23 00:43:20;;;;;;;132.82;45.45;;;8.90;99.90;;;;;;4179170;28;20029;-77
2020/12/23 00:45:20;;;;;;;130.38;45.90;;;8.90;99.90;;;;;;4161332;28;20176;-78
2020/12/23 00:47:21;;;;;;;133.55;43.78;;;8.90;99.90;;;;;;4161086;28;20053;-78
2020/12/23 00:49:21;;;;;;;142.45;46.88;;;8.90;99.90;;;;;;4179021;28;20544;-78
2020/12/23 00:51:22;;;;;;;132.80;47.53;;;8.90;99.90;;;;;;4178882;28;20097;-78
2020/12/23 00:53:23;;;;;;;138.20;47.17;;;8.90;99.90;;;;;;4178823;28;20040;-78
2020/12/23 00:55:23;;;;;;;141.13;45.33;;;8.90;99.90;;;;;;4178769;28;20438;-78
2020/12/23 00:57:24;;;;;;;145.73;46.53;;;8.90;99.90;;;;;;4178993;28;20151;-78
2020/12/23 00:59:24;;;;;;;156.93;49.20;;;8.90;99.90;;;;;;4179118;28;20033;-78
2020/12/23 01:01:25;;;;;;;166.80;49.60;;;8.90;99.90;;;;;;4178965;28;20054;-78
2020/12/23 01:03:26;;;;;;;165.18;50.03;;;8.90;99.90;;;;;;4181669;28;20029;-78
2020/12/23 01:05:26;;;;;;;173.10;49.78;;;9.00;99.90;;;;;;4182020;28;20080;-78
2020/12/23 01:07:27;;;;;;;149.73;48.47;;;8.90;99.90;;;;;;4181736;28;20033;-78
2020/12/23 01:09:28;;;;;;;171.95;50.88;;;9.00;99.90;;;;;;4164316;28;20045;-78
2020/12/23 01:11:28;;;;;;;162.35;48.80;;;9.00;99.90;;;;;;4164268;28;20041;-78
2020/12/23 01:13:29;;;;;;;158.07;49.20;;;9.00;99.90;;;;;;4164374;28;20496;-78
2020/12/23 01:15:29;;;;;;;153.43;48.70;;;9.00;99.90;;;;;;4164098;28;20036;-78
2020/12/23 01:17:30;;;;;;;178.75;52.13;;;9.00;99.90;;;;;;4163808;28;20038;-78
2020/12/23 01:19:31;;;;;;;174.95;51.25;;;9.00;99.90;;;;;;4181681;28;20029;-78
2020/12/23 01:21:31;;;;;;;184.70;51.53;;;9.00;99.90;;;;;;4163711;28;20087;-78
2020/12/23 01:23:32;;;;;;;188.80;51.97;;;9.00;99.90;;;;;;4181855;28;20033;-78
2020/12/23 01:25:32;;;;;;;201.73;54.97;;;9.00;99.90;;;;;;4179544;28;20052;-78
2020/12/23 01:27:33;;;;;;;208.85;53.85;;;9.00;99.90;;;;;;4178208;28;20075;-79
2020/12/23 01:29:34;;;;;;;192.68;52.90;;;9.00;99.90;;;;;;4181027;28;20032;-78
2020/12/23 01:31:34;;;;;;;192.25;54.47;;;9.00;99.90;;;;;;4180206;28;20383;-78
2020/12/23 01:33:35;;;;;;;197.90;52.25;;;9.00;99.90;;;;;;4150659;28;20029;-78
2020/12/23 01:35:35;;;;;;;194.40;52.38;;;9.00;99.90;;;;;;4178635;28;20035;-78
2020/12/23 01:37:36;;;;;;;180.50;50.40;;;9.00;99.90;;;;;;4179513;28;20483;-78
2020/12/23 01:39:37;;;;;;;179.45;50.60;;;9.10;99.90;;;;;;4179952;28;20025;-78
2020/12/23 01:41:37;;;;;;;184.93;53.85;;;9.10;99.90;;;;;;4162092;28;20520;-78
2020/12/23 01:43:40;;;;;;;186.48;52.03;;;9.10;99.90;;;;;;4162271;28;20060;-77
2020/12/23 01:45:41;;;;;;;178.75;52.95;;;9.10;99.90;;;;;;4179202;28;20033;-76
2020/12/23 01:47:44;;;;;;;195.02;54.08;;;9.10;99.90;;;;;;4179306;28;20079;-77
2020/12/23 01:49:45;;;;;;;173.88;53.75;;;9.10;99.90;;;;;;4179521;28;20078;-78
2020/12/23 01:51:46;;;;;;;192.05;55.88;;;9.10;99.90;;;;;;4162018;28;20113;-78
2020/12/23 01:53:48;;;;;;;194.57;56.78;;;9.10;99.90;;;;;;4161813;28;20033;-78
2020/12/23 01:55:49;;;;;;;188.75;55.00;;;9.20;99.90;;;;;;4180753;28;20047;-78
2020/12/23 01:57:51;;;;;;;185.25;52.67;;;9.20;99.90;;;;;;4181317;28;20111;-79
2020/12/23 01:59:51;;;;;;;216.25;59.13;;;9.20;99.90;;;;;;4181171;28;20082;-78
2020/12/23 02:02:08;;;;;;;192.80;56.25;;;9.20;99.90;;;;;;4181336;28;20116;-78
2020/12/23 02:04:08;;;;;;;198.15;57.92;;;9.20;99.90;;;;;;4180832;28;20172;-78
2020/12/23 02:06:09;;;;;;;224.13;58.05;;;9.20;99.90;;;;;;4163104;28;20130;-77
2020/12/23 02:08:10;;;;;;;210.63;58.58;;;9.20;99.90;;;;;;4163405;28;20037;-78
2020/12/23 02:10:11;;;;;;;214.43;59.13;;;9.20;99.90;;;;;;4181133;28;20025;-78
2020/12/23 02:12:12;;;;;;;219.48;56.67;;;9.20;99.90;;;;;;4180972;28;20028;-78
2020/12/23 02:14:12;;;;;;;252.20;61.60;;;9.20;99.90;;;;;;4180292;28;20474;-78
2020/12/23 02:16:13;;;;;;;257.77;62.95;;;9.20;99.90;;;;;;4180921;28;20462;-78
2020/12/23 02:18:14;;;;;;;259.33;62.92;;;9.20;99.90;;;;;;4180968;28;20044;-78
2020/12/23 02:20:16;;;;;;;283.15;64.93;;;9.20;99.90;;;;;;4180723;28;20484;-78
2020/12/23 02:22:21;;;;;;;297.77;65.18;;;9.20;99.90;;;;;;4162987;28;20104;-78
2020/12/23 02:24:22;;;;;;;327.17;70.88;;;9.20;99.90;;;;;;4180839;28;20079;-78
2020/12/23 02:26:22;;;;;;;284.55;63.55;;;9.20;99.90;;;;;;4180550;28;20025;-78
2020/12/23 02:28:23;;;;;;;316.17;67.38;;;9.20;99.90;;;;;;4180643;28;20057;-78
2020/12/23 02:30:24;;;;;;;326.55;67.75;;;9.20;99.90;;;;;;4180536;28;20036;-78
2020/12/23 02:32:25;;;;;;;384.67;73.05;;;9.20;99.90;;;;;;4162958;28;20080;-78
2020/12/23 02:34:26;;;;;;;332.40;70.55;;;9.30;99.90;;;;;;4162743;28;20026;-78
2020/12/23 02:36:26;;;;;;;373.88;74.70;;;9.30;99.90;;;;;;4180804;28;20121;-78
2020/12/23 02:38:27;;;;;;;355.55;68.65;;;9.30;99.90;;;;;;4180504;28;20036;-78
2020/12/23 02:40:27;;;;;;;430.52;77.20;;;9.30;99.90;;;;;;4162662;28;20040;-78
2020/12/23 02:42:28;;;;;;;397.10;80.43;;;9.30;99.90;;;;;;4161884;28;20030;-78
2020/12/23 02:44:29;;;;;;;435.52;79.88;;;9.30;99.90;;;;;;4178957;28;20017;-78
2020/12/23 02:46:29;;;;;;;464.55;82.57;;;9.30;99.90;;;;;;4160822;28;20376;-78
2020/12/23 02:48:30;;;;;;;445.38;82.95;;;9.30;99.90;;;;;;4161020;28;20029;-78
2020/12/23 02:50:30;;;;;;;455.10;79.70;;;9.30;99.90;;;;;;4178560;28;20451;-78
2020/12/23 02:52:31;;;;;;;464.45;87.13;;;9.40;99.90;;;;;;4160796;28;20040;-79
2020/12/23 02:54:35;;;;;;;442.05;84.13;;;9.40;99.90;;;;;;4161108;28;20499;-79
2020/12/23 02:56:36;;;;;;;396.35;78.78;;;9.40;99.90;;;;;;4178634;28;20506;-79
2020/12/23 02:58:37;;;;;;;439.35;83.82;;;9.40;99.90;;;;;;4179620;28;20029;-79
2020/12/23 03:00:37;;;;;;;356.65;74.30;;;9.40;99.90;;;;;;4180192;28;20017;-79
2020/12/23 03:02:38;;;;;;;418.30;79.82;;;9.40;99.90;;;;;;4180156;28;20087;-79
2020/12/23 03:04:39;;;;;;;394.05;77.63;;;9.40;99.90;;;;;;4180231;28;20092;-79
2020/12/23 03:06:39;;;;;;;335.20;72.53;;;9.40;99.90;;;;;;4162549;28;20720;-79
2020/12/23 03:08:40;;;;;;;347.48;72.50;;;9.40;99.90;;;;;;4162416;28;20496;-79
2020/12/23 03:10:40;;;;;;;386.40;75.28;;;9.40;99.90;;;;;;4179690;28;20018;-79
2020/12/23 03:12:41;;;;;;;361.42;72.97;;;9.40;99.90;;;;;;4179803;28;20033;-79
2020/12/23 03:14:41;;;;;;;381.55;76.13;;;9.50;99.90;;;;;;4180164;28;20039;-79
2020/12/23 03:16:42;;;;;;;380.33;74.55;;;9.50;99.90;;;;;;4162185;28;20091;-79
2020/12/23 03:18:44;;;;;;;339.52;73.40;;;9.50;99.90;;;;;;4162105;28;20026;-79
2020/12/23 03:20:44;;;;;;;410.23;79.50;;;9.50;99.90;;;;;;4180266;28;20025;-79
2020/12/23 03:22:45;;;;;;;405.13;77.43;;;9.50;99.90;;;;;;4179914;28;20029;-79
2020/12/23 03:24:46;;;;;;;430.95;81.43;;;9.50;99.90;;;;;;4179860;28;20480;-79
2020/12/23 03:26:46;;;;;;;395.73;76.55;;;9.50;99.90;;;;;;4159240;28;20030;-79
2020/12/23 03:28:47;;;;;;;354.40;71.22;;;9.50;99.90;;;;;;4162045;28;20038;-79
2020/12/23 03:30:48;;;;;;;424.88;75.85;;;9.50;99.90;;;;;;4179828;28;20472;-79
2020/12/23 03:32:48;;;;;;;375.67;76.68;;;9.50;99.90;;;;;;4162155;28;20041;-79
2020/12/23 03:34:49;;;;;;;337.42;70.38;;;9.50;99.90;;;;;;4179569;28;20021;-79
2020/12/23 03:36:49;;;;;;;349.52;71.70;;;9.50;99.90;;;;;;4161858;28;20408;-79
2020/12/23 03:38:50;;;;;;;315.35;68.57;;;9.60;99.90;;;;;;4179782;28;20036;-79
2020/12/23 03:40:50;;;;;;;315.77;69.80;;;9.60;99.90;;;;;;4161842;28;20044;-78
2020/12/23 03:42:51;;;;;;;325.48;73.03;;;9.60;99.90;;;;;;4179455;28;20070;-79
2020/12/23 03:44:52;;;;;;;335.90;72.63;;;9.60;99.90;;;;;;4179602;28;20032;-78
2020/12/23 03:46:52;;;;;;;334.27;72.57;;;9.60;99.90;;;;;;4161196;28;20467;-78
2020/12/23 03:48:53;;;;;;;301.23;71.95;;;9.60;99.90;;;;;;4179656;28;20143;-79
2020/12/23 03:50:54;;;;;;;310.17;71.38;;;9.60;99.90;;;;;;4179556;28;20037;-78
2020/12/23 03:52:54;;;;;;;311.33;70.82;;;9.60;99.90;;;;;;4179616;28;20028;-78
2020/12/23 03:54:55;;;;;;;309.50;71.72;;;9.70;99.90;;;;;;4179599;28;20052;-78
2020/12/23 03:56:55;;;;;;;291.73;67.45;;;9.70;99.90;;;;;;4179391;28;20094;-78
2020/12/23 03:58:56;;;;;;;316.40;72.18;;;9.70;99.90;;;;;;4179021;28;20052;-78
2020/12/23 04:00:57;;;;;;;287.63;69.63;;;9.70;99.90;;;;;;4161793;28;20093;-79
2020/12/23 04:02:58;;;;;;;297.60;71.60;;;9.70;99.90;;;;;;4179508;28;20025;-79
2020/12/23 04:04:58;;;;;;;269.85;71.28;;;9.70;99.90;;;;;;4179520;28;20036;-79
2020/12/23 04:06:59;;;;;;;283.80;69.75;;;9.80;99.90;;;;;;4161591;28;20061;-79
2020/12/23 04:08:59;;;;;;;275.90;69.32;;;9.80;99.90;;;;;;4179024;28;20025;-79
2020/12/23 04:11:00;;;;;;;265.92;67.38;;;9.80;99.90;;;;;;4171893;28;20044;-79
2020/12/23 04:13:01;;;;;;;276.60;69.57;;;9.80;99.90;;;;;;4178967;28;20025;-77
2020/12/23 04:15:11;;;;;;;254.07;66.57;;;9.80;99.90;;;;;;4172429;28;20145;-78
2020/12/23 04:17:12;;;;;;;236.02;64.82;;;9.90;99.90;;;;;;4179155;28;20519;-78
2020/12/23 04:19:13;;;;;;;265.65;67.80;;;9.90;99.90;;;;;;4179385;28;20384;-79
2020/12/23 04:21:14;;;;;;;280.60;69.05;;;9.90;99.90;;;;;;4179376;28;20029;-79
2020/12/23 04:23:14;;;;;;;256.08;67.63;;;9.90;99.90;;;;;;4161238;28;20401;-78
2020/12/23 04:25:15;;;;;;;234.20;63.58;;;10.00;99.90;;;;;;4179098;28;20415;-79
2020/12/23 04:27:16;;;;;;;250.02;67.53;;;10.00;99.90;;;;;;4179121;28;20388;-78
2020/12/23 04:29:16;;;;;;;234.73;65.70;;;10.00;99.90;;;;;;4179229;28;20036;-79
2020/12/23 04:31:17;;;;;;;257.67;66.90;;;10.00;99.90;;;;;;4178898;28;20025;-79
2020/12/23 04:33:18;;;;;;;245.75;66.00;;;10.00;99.90;;;;;;4178934;28;20048;-78
2020/12/23 04:35:18;;;;;;;227.60;63.50;;;10.00;99.90;;;;;;4161417;28;20037;-78
2020/12/23 04:37:19;;;;;;;225.30;60.38;;;10.00;99.90;;;;;;4180060;28;20392;-78
2020/12/23 04:39:20;;;;;;;221.40;59.58;;;10.00;99.90;;;;;;4169696;28;20436;-78
2020/12/23 04:41:20;;;;;;;219.00;60.67;;;10.00;99.90;;;;;;4181391;28;20029;-78
2020/12/23 04:43:21;;;;;;;229.38;60.38;;;10.10;99.90;;;;;;4182252;28;20116;-78
2020/12/23 04:45:22;;;;;;;211.93;57.35;;;10.10;99.90;;;;;;4182307;28;20049;-78
2020/12/23 04:47:25;;;;;;;225.98;59.72;;;10.10;99.90;;;;;;4164214;28;20583;-78
2020/12/23 04:49:26;;;;;;;207.75;54.70;;;10.10;99.90;;;;;;4182165;28;20037;-78
2020/12/23 04:51:39;;;;;;;221.70;55.58;;;10.10;99.90;;;;;;4182670;28;20040;-79
2020/12/23 04:53:40;;;;;;;212.80;57.13;;;10.10;99.90;;;;;;4164343;28;20145;-78
2020/12/23 04:55:42;;;;;;;213.50;58.78;;;10.20;99.90;;;;;;4181832;28;20383;-78
2020/12/23 04:57:44;;;;;;;213.43;54.22;;;10.20;99.90;;;;;;4164318;28;20030;-78
2020/12/23 04:59:45;;;;;;;220.80;58.10;;;10.20;99.90;;;;;;4182258;28;20051;-78
2020/12/23 05:01:45;;;;;;;232.57;55.10;;;10.20;99.90;;;;;;4175676;28;20028;-78
2020/12/23 05:03:46;;;;;;;201.00;52.35;;;10.20;99.90;;;;;;4182038;28;20056;-78
2020/12/23 05:05:46;;;;;;;213.20;50.15;;;10.20;99.90;;;;;;4164172;28;20208;-78
2020/12/23 05:07:47;;;;;;;212.32;41.15;;;10.20;99.90;;;;;;4164408;28;20113;-78
2020/12/23 05:09:49;;;;;;;157.60;35.22;;;10.20;99.90;;;;;;4182046;28;20094;-77
2020/12/23 05:11:50;;;;;;;134.48;28.95;;;10.20;99.90;;;;;;4181694;28;20056;-78
2020/12/23 05:13:52;;;;;;;110.70;23.50;;;10.20;99.90;;;;;;4163950;28;20029;-77
2020/12/23 05:15:52;;;;;;;14.55;5.95;;;10.20;99.90;;;;;;4182069;28;20374;-78
2020/12/23 05:17:53;;;;;;;6.68;3.47;;;10.20;99.90;;;;;;4181869;28;20044;-77
2020/12/23 05:19:53;;;;;;;2.50;2.40;;;10.20;99.90;;;;;;4181963;28;20047;-77
2020/12/23 05:21:58;;;;;;;2.97;2.83;;;10.10;99.90;;;;;;4181704;28;20450;-78
2020/12/23 05:23:58;;;;;;;4.15;3.90;;;10.10;99.90;;;;;;4181914;28;20025;-78
2020/12/23 05:26:06;;;;;;;4.45;4.05;;;10.10;99.90;;;;;;4181932;28;20476;-77
2020/12/23 05:28:08;;;;;;;3.95;3.75;;;10.10;99.90;;;;;;4157830;28;20034;-77
2020/12/23 05:30:10;;;;;;;3.47;3.28;;;10.10;99.90;;;;;;4181232;28;20032;-77
2020/12/23 05:32:11;;;;;;;4.25;2.70;;;10.10;99.90;;;;;;4181660;28;20057;-77
2020/12/23 05:34:14;;;;;;;3.53;3.25;;;10.20;99.90;;;;;;4181726;28;20026;-77
2020/12/23 05:36:18;;;;;;;4.93;4.57;;;10.20;99.90;;;;;;4181309;28;20029;-78
2020/12/23 05:38:19;;;;;;;3.60;3.40;;;10.20;99.90;;;;;;4181355;28;20021;-78
2020/12/23 05:40:20;;;;;;;4.40;4.20;;;10.20;99.90;;;;;;4163861;28;20079;-78
2020/12/23 05:42:21;;;;;;;3.22;2.35;;;10.30;99.90;;;;;;4181451;28;20034;-78
2020/12/23 05:44:21;;;;;;;2.72;2.58;;;10.30;99.90;;;;;;4181702;28;20124;-78
2020/12/23 05:46:22;;;;;;;3.25;2.50;;;10.30;99.90;;;;;;4181325;28;20476;-78
2020/12/23 05:48:23;;;;;;;3.20;2.27;;;10.30;99.90;;;;;;4180799;28;20029;-78
2020/12/23 05:50:24;;;;;;;4.15;3.60;;;10.30;99.90;;;;;;4162903;28;20129;-78
2020/12/23 05:52:26;;;;;;;7.10;4.07;;;10.30;99.90;;;;;;4181435;28;20041;-78
2020/12/23 05:54:29;;;;;;;4.30;4.00;;;10.30;99.90;;;;;;4181413;28;20081;-78
2020/12/23 05:56:34;;;;;;;3.50;3.30;;;10.30;99.90;;;;;;4181168;28;20025;-78
2020/12/23 05:58:37;;;;;;;4.03;2.97;;;10.30;99.90;;;;;;4180782;28;20453;-78
2020/12/23 06:00:39;;;;;;;3.38;3.13;;;10.30;99.90;;;;;;4181074;28;20487;-78
2020/12/23 06:03:24;;;;;;;2.40;2.30;;;10.30;99.90;;;;;;4181219;28;20074;-78
2020/12/23 06:05:28;;;;;;;2.88;2.70;;;10.30;99.90;;;;;;4113210;28;20046;-78
2020/12/23 06:07:31;;;;;;;2.38;2.28;;;10.30;99.90;;;;;;4162210;28;20038;-77
2020/12/23 06:09:48;;;;;;;3.75;3.38;;;10.30;99.90;;;;;;4181083;28;20505;-77
2020/12/23 06:11:55;;;;;;;2.88;2.67;;;10.30;99.90;;;;;;4180759;28;20025;-77
2020/12/23 06:14:13;;;;;;;2.53;2.40;;;10.30;99.90;;;;;;4163133;28;20033;-77
2020/12/23 06:16:23;;;;;;;6.97;2.72;;;10.30;99.90;;;;;;4162945;28;20493;-77
2020/12/23 06:18:27;;;;;;;2.40;2.30;;;10.30;99.90;;;;;;4181131;28;20082;-77
2020/12/23 06:20:30;;;;;;;3.22;3.03;;;10.30;99.90;;;;;;4163182;28;20485;-77
2020/12/23 06:22:36;;;;;;;2.42;2.33;;;10.40;99.90;;;;;;4180906;28;20357;-77
2020/12/23 06:24:37;;;;;;;1.83;1.75;;;10.40;99.90;;;;;;4163283;28;20033;-78
2020/12/23 06:26:40;;;;;;;2.70;2.50;;;10.40;99.90;;;;;;4180942;28;20032;-78
2020/12/23 06:28:50;;;;;;;2.63;2.53;;;10.40;99.90;;;;;;4172225;28;20036;-77
2020/12/23 06:30:52;;;;;;;2.05;1.95;;;10.40;99.90;;;;;;4180748;28;20049;-77
2020/12/23 06:32:59;;;;;;;2.33;1.80;;;10.40;99.90;;;;;;4180708;28;20033;-78
2020/12/23 06:35:02;;;;;;;2.42;2.33;;;10.40;99.90;;;;;;4180495;28;20074;-78
2020/12/23 06:37:20;;;;;;;5.45;2.50;;;10.50;99.90;;;;;;4180234;28;20025;-78
2020/12/23 06:39:28;;;;;;;1.55;1.55;;;10.50;99.90;;;;;;4180678;28;20048;-77
2020/12/23 06:41:29;;;;;;;4.13;3.70;;;10.40;99.90;;;;;;4180459;28;20033;-78
2020/12/23 06:43:54;;;;;;;2.47;2.28;;;10.40;99.90;;;;;;4180465;28;20092;-78
2020/12/23 06:45:55;;;;;;;1.40;1.40;;;10.50;99.90;;;;;;4180528;28;20055;-78
2020/12/23 06:48:13;;;;;;;2.20;2.10;;;10.50;99.90;;;;;;4180199;28;20036;-78
2020/12/23 06:50:15;;;;;;;4.60;2.53;;;10.50;99.90;;;;;;4162211;28;20045;-78
2020/12/23 06:52:22;;;;;;;1.67;1.67;;;10.50;99.90;;;;;;4180397;28;20365;-78
2020/12/23 06:54:53;;;;;;;3.28;2.95;;;10.50;99.90;;;;;;4162634;28;20044;-78
2020/12/23 06:56:54;;;;;;;3.30;2.75;;;10.50;99.90;;;;;;4180370;28;20377;-77
2020/12/23 06:58:54;;;;;;;2.35;2.25;;;10.50;99.90;;;;;;4180344;28;20071;-77
2020/12/23 07:01:17;;;;;;;2.72;2.53;;;10.50;99.90;;;;;;4180028;28;20476;-78
2020/12/23 07:03:31;;;;;;;3.42;2.67;;;10.50;99.90;;;;;;4162190;28;20021;-78
2020/12/23 07:05:37;;;;;;;1.50;1.50;;;10.60;99.90;;;;;;4180833;28;20537;-79
2020/12/23 07:07:39;;;;;;;1.30;1.30;;;10.60;99.90;;;;;;4161479;28;20030;-79
2020/12/23 07:09:48;;;;;;;3.67;3.47;;;10.60;99.90;;;;;;4176200;28;20051;-79
2020/12/23 07:11:57;;;;;;;2.90;1.55;;;10.60;99.90;;;;;;4166786;28;20104;-79
2020/12/23 07:13:58;;;;;;;1.15;1.15;;;10.60;99.90;;;;;;4163507;28;20396;-79
2020/12/23 07:15:59;;;;;;;3.45;3.25;;;10.60;99.90;;;;;;4164972;28;20490;-79
2020/12/23 07:18:11;;;;;;;8.07;2.83;;;10.60;99.90;;;;;;4164682;28;20052;-79
2020/12/23 07:20:13;;;;;;;1.52;1.52;;;10.60;99.90;;;;;;4147775;28;20026;-79
2020/12/23 07:22:16;;;;;;;1.42;1.42;;;10.60;99.90;;;;;;4165111;28;20484;-79
2020/12/23 07:24:19;;;;;;;;;;;10.60;99.90;;;;;;4147360;28;20513;-79
2020/12/23 07:26:23;;;;;;;1.90;1.80;;;10.60;99.90;;;;;;4163123;28;20063;-79
2020/12/23 07:28:37;;;;;;;2.45;2.35;;;10.60;99.90;;;;;;4176537;28;20037;-79
2020/12/23 07:30:40;;;;;;;3.72;3.53;;;10.70;99.90;;;;;;4146343;28;20060;-79
2020/12/23 07:32:41;;;;;;;1.63;1.60;;;10.80;99.90;;;;;;4151831;28;20026;-79
2020/12/23 07:34:48;;;;;;;3.25;3.05;;;10.80;99.90;;;;;;4148158;28;20465;-79
2020/12/23 07:36:56;;;;;;;1.85;1.75;;;10.90;99.90;;;;;;4131502;28;20026;-79
2020/12/23 07:39:00;;;;;;;2.72;2.63;;;10.90;99.90;;;;;;4147639;28;20034;-79
2020/12/23 07:41:01;;;;;;;5.20;3.03;;;10.90;99.90;;;;;;4146348;28;20046;-75
2020/12/23 07:43:03;;;;;;;1.95;1.85;;;11.00;99.90;;;;;;4164999;28;20037;-78
2020/12/23 07:45:04;;;;;;;1.98;1.88;;;11.10;99.90;;;;;;4162770;28;20049;-78
2020/12/23 07:47:04;;;;;;;2.75;2.65;;;11.10;99.90;;;;;;4170814;28;20399;-79
2020/12/23 07:49:05;;;;;;;1.73;1.73;;;11.10;99.90;;;;;;4152353;28;20029;-78
2020/12/23 07:51:08;;;;;;;2.30;2.20;;;11.20;99.90;;;;;;4164811;28;20036;-78
2020/12/23 07:53:10;;;;;;;2.78;2.58;;;11.20;99.90;;;;;;4163838;28;20420;-78
2020/12/23 07:55:13;;;;;;;1.45;1.45;;;11.20;99.90;;;;;;4163974;28;20574;-79
2020/12/23 07:57:26;;;;;;;2.42;2.28;;;11.20;99.90;;;;;;4146702;28;20033;-78
2020/12/23 07:59:27;;;;;;;1.40;1.40;;;11.20;99.90;;;;;;4161918;28;20064;-78
2020/12/23 08:01:28;;;;;;;1.88;1.77;;;11.20;99.90;;;;;;4162712;28;20026;-79
2020/12/23 08:03:30;;;;;;;2.55;2.45;;;11.20;99.90;;;;;;4168997;28;20048;-79
2020/12/23 08:05:31;;;;;;;2.97;2.80;;;11.20;99.90;;;;;;4164375;28;20017;-79
2020/12/23 08:07:32;;;;;;;3.05;2.30;;;11.30;99.90;;;;;;4165744;28;20025;-79
2020/12/23 08:09:32;;;;;;;2.60;2.40;;;11.30;99.90;;;;;;4163383;28;20033;-80
2020/12/23 08:11:33;;;;;;;3.70;2.45;;;11.30;99.90;;;;;;4161725;28;20057;-80
2020/12/23 08:13:33;;;;;;;2.50;2.40;;;11.40;99.90;;;;;;4161048;28;20429;-79
2020/12/23 08:15:34;;;;;;;3.20;3.00;;;11.40;99.90;;;;;;4165171;28;20045;-79
2020/12/23 08:17:35;;;;;;;2.33;2.22;;;11.30;99.90;;;;;;4166691;28;20033;-79
2020/12/23 08:19:36;;;;;;;3.63;2.75;;;11.30;99.90;;;;;;4164131;28;20025;-78
2020/12/23 08:21:37;;;;;;;10.02;2.72;;;11.30;99.90;;;;;;4163583;28;20132;-78
2020/12/23 08:23:39;;;;;;;1.65;1.55;;;11.40;99.90;;;;;;4149642;28;20030;-79
2020/12/23 08:25:40;;;;;;;1.70;1.60;;;11.40;99.90;;;;;;4146142;28;20040;-79
2020/12/23 08:27:43;;;;;;;2.97;2.78;;;11.40;99.90;;;;;;4168198;28;20060;-79
2020/12/23 08:29:44;;;;;;;;;;;11.40;99.90;;;;;;4170176;28;20407;-79
2020/12/23 08:31:50;;;;;;;2.25;2.15;;;11.40;99.90;;;;;;4152373;28;19913;-80
2020/12/23 08:33:57;;;;;;;2.60;2.42;;;11.40;99.90;;;;;;4176070;28;20041;-79
2020/12/23 08:36:02;;;;;;;3.63;2.22;;;11.40;99.90;;;;;;4175888;28;20029;-80
2020/12/23 08:38:03;;;;;;;3.00;2.83;;;11.40;99.90;;;;;;4176042;28;20041;-79
2020/12/23 08:40:06;;;;;;;2.13;2.03;;;11.40;99.90;;;;;;4164829;28;20032;-79
2020/12/23 08:42:08;;;;;;;2.30;2.20;;;11.50;99.90;;;;;;4177475;28;20040;-77
2020/12/23 08:44:11;;;;;;;2.70;2.50;;;11.50;99.90;;;;;;4176795;28;20082;-77
2020/12/23 08:46:26;;;;;;;2.08;1.70;;;11.50;99.90;;;;;;4177203;28;20460;-78
2020/12/23 08:48:29;;;;;;;3.25;2.50;;;11.50;99.90;;;;;;4177669;28;20555;-78
2020/12/23 08:50:29;;;;;;;2.47;2.35;;;11.50;99.90;;;;;;4166891;28;20039;-78
2020/12/23 08:52:30;;;;;;;2.13;1.98;;;11.50;99.90;;;;;;4165429;28;20471;-78
2020/12/23 08:54:37;;;;;;;2.00;1.90;;;11.50;99.90;;;;;;4171438;28;20048;-78
2020/12/23 08:56:48;;;;;;;2.38;2.28;;;11.50;99.90;;;;;;4170446;28;20057;-78
2020/12/23 08:59:09;;;;;;;6.18;3.03;;;11.50;99.90;;;;;;4175320;28;20024;-79
2020/12/23 09:01:10;;;;;;;2.40;2.15;;;11.50;99.90;;;;;;4158621;28;20033;-76
2020/12/23 09:03:22;;;;;;;2.33;2.22;;;11.50;99.90;;;;;;4175070;28;20140;-77
2020/12/23 09:05:28;;;;;;;2.97;2.88;;;11.50;99.90;;;;;;4150075;28;20040;-79
2020/12/23 09:07:28;;;;;;;2.38;2.17;;;11.50;99.90;;;;;;4176887;28;20048;-78
2020/12/23 09:09:29;;;;;;;2.08;1.98;;;11.50;99.90;;;;;;4161548;28;20476;-79
2020/12/23 09:11:47;;;;;;;5.40;1.98;;;11.50;99.90;;;;;;4143497;28;20034;-79
2020/12/23 09:13:48;;;;;;;3.40;3.10;;;11.50;99.90;;;;;;4160473;28;20041;-78
2020/12/23 09:15:53;;;;;;;2.45;2.35;;;11.50;99.90;;;;;;4142419;28;20509;-78
2020/12/23 09:18:04;;;;;;;2.13;2.03;;;11.50;99.90;;;;;;4144713;28;20061;-78
2020/12/23 09:20:05;;;;;;;2.20;2.10;;;11.50;99.90;;;;;;4143929;28;20026;-78
2020/12/23 09:22:06;;;;;;;2.83;2.40;;;11.50;99.90;;;;;;4173299;28;20125;-78
2020/12/23 09:24:09;;;;;;;2.20;2.10;;;11.50;99.90;;;;;;4166345;28;20091;-79
2020/12/23 09:26:16;;;;;;;2.30;2.20;;;11.60;99.90;;;;;;4161812;28;20064;-78
2020/12/23 09:28:17;;;;;;;2.67;2.55;;;11.50;99.90;;;;;;4158999;28;20050;-78
2020/12/23 09:30:34;;;;;;;1.20;1.20;;;11.50;99.90;;;;;;4152550;28;20450;-78
2020/12/23 09:32:35;;;;;;;1.50;1.40;;;11.60;99.90;;;;;;4163487;28;20602;-78
2020/12/23 09:34:37;;;;;;;1.17;1.17;;;11.60;99.90;;;;;;4162795;28;20052;-78
2020/12/23 09:36:38;;;;;;;1.40;1.40;;;11.60;99.90;;;;;;4165070;28;20037;-77
2020/12/23 09:38:40;;;;;;;2.08;1.98;;;11.60;99.90;;;;;;4167627;28;20605;-77
2020/12/23 09:40:59;;;;;;;2.05;1.90;;;11.50;99.90;;;;;;4167009;28;20034;-77
2020/12/23 09:43:00;;;;;;;1.67;1.67;;;11.50;99.90;;;;;;4164102;28;20381;-78
2020/12/23 09:45:01;;;;;;;3.10;2.88;;;11.50;99.90;;;;;;4131169;28;20485;-78
2020/12/23 09:47:02;;;;;;;1.42;1.42;;;11.50;99.90;;;;;;4149020;28;20042;-77
2020/12/23 09:49:02;;;;;;;2.22;2.03;;;11.50;99.90;;;;;;4179862;28;20076;-77
2020/12/23 09:51:03;;;;;;;1.60;1.58;;;11.50;99.90;;;;;;4178222;28;20029;-78
2020/12/23 09:53:04;;;;;;;2.22;2.13;;;11.50;99.90;;;;;;4180064;28;20021;-77
2020/12/23 09:55:08;;;;;;;1.73;1.65;;;11.50;99.90;;;;;;4179410;28;20051;-78
2020/12/23 09:57:08;;;;;;;1.35;1.33;;;11.50;99.90;;;;;;4164429;28;20017;-78
2020/12/23 09:59:09;;;;;;;1.48;1.27;;;11.50;99.90;;;;;;4159474;28;20034;-78
2020/12/23 10:01:09;;;;;;;3.95;3.53;;;11.50;99.90;;;;;;4170311;28;20076;-78
2020/12/23 10:03:10;;;;;;;1.80;1.70;;;11.50;99.90;;;;;;4163621;28;20348;-78
2020/12/23 10:05:11;;;;;;;1.77;1.67;;;11.50;99.90;;;;;;4163430;28;20048;-78
2020/12/23 10:07:11;;;;;;;1.75;1.75;;;11.50;99.90;;;;;;4147806;28;20060;-78
2020/12/23 10:09:12;;;;;;;1.85;1.75;;;11.50;99.90;;;;;;4165888;28;20052;-79
2020/12/23 10:11:16;;;;;;;1.20;1.20;;;11.50;99.90;;;;;;4172964;28;20041;-78
2020/12/23 10:13:17;;;;;;;1.27;1.27;;;11.50;99.90;;;;;;4162330;28;20388;-78
2020/12/23 10:15:17;;;;;;;1.45;1.45;;;11.50;99.90;;;;;;4162040;28;20086;-78
2020/12/23 10:17:19;;;;;;;1.75;1.70;;;11.50;99.90;;;;;;4155284;28;20540;-78
2020/12/23 10:19:19;;;;;;;1.13;1.13;;;11.50;99.90;;;;;;4148029;28;20029;-78
2020/12/23 10:21:20;;;;;;;2.67;1.90;;;11.50;99.90;;;;;;4164679;28;20731;-76
2020/12/23 10:23:20;;;;;;;2.60;1.73;;;11.50;99.90;;;;;;4161158;28;20038;-77
2020/12/23 10:25:20;;;;;;;2.88;1.65;;;11.50;99.90;;;;;;4161459;28;20025;-76
2020/12/23 10:27:21;;;;;;;2.42;2.22;;;11.50;99.90;;;;;;4172117;28;20704;-77
2020/12/23 10:29:22;;;;;;;2.20;2.10;;;11.50;99.90;;;;;;4166477;28;20033;-77